sensor_id;sensor_type;location;lat;lon;timestamp;P1;durP1;ratioP1;P2;durP2;ratioP2
428;SDS011;201;48.758;9.290;2022-09-03T00:01:37;3.73;;;1.80;;
428;SDS011;201;48.758;9.290;2022-09-03T00:04:29;1.93;;;1.90;;
428;SDS011;201;48.758;9.290;2022-09-03T00:07:14;1.83;;;1.60;;
428;SDS011;201;48.758;9.290;2022-09-03T00:09:48;1.97;;;1.30;;
428;SDS011;201;48.758;9.290;2022-09-03T00:12:23;1.80;;;1.70;;
428;SDS011;201;48.758;9.290;2022-09-03T00:15:03;2.50;;;1.50;;
428;SDS011;201;48.758;9.290;2022-09-03T00:17:31;4.10;;;2.03;;
428;SDS011;201;48.758;9.290;2022-09-03T00:20:05;2.80;;;1.50;;
428;SDS011;201;48.758;9.290;2022-09-03T00:22:38;1.80;;;1.50;;
428;SDS011;201;48.758;9.290;2022-09-03T00:25:10;2.10;;;1.57;;
428;SDS011;201;48.758;9.290;2022-09-03T00:27:38;2.10;;;1.63;;
428;SDS011;201;48.758;9.290;2022-09-03T00:32:41;2.23;;;1.60;;
428;SDS011;201;48.758;9.290;2022-09-03T00:35:28;1.40;;;1.23;;
428;SDS011;201;48.758;9.290;2022-09-03T00:37:57;1.90;;;1.70;;
428;SDS011;201;48.758;9.290;2022-09-03T00:54:54;2.37;;;1.93;;
428;SDS011;201;48.758;9.290;2022-09-03T00:57:51;2.67;;;1.77;;
428;SDS011;201;48.758;9.290;2022-09-03T01:00:30;5.37;;;1.90;;
428;SDS011;201;48.758;9.290;2022-09-03T01:08:59;2.40;;;1.23;;
428;SDS011;201;48.758;9.290;2022-09-03T01:14:56;2.40;;;1.03;;
428;SDS011;201;48.758;9.290;2022-09-03T01:17:40;1.53;;;1.50;;
428;SDS011;201;48.758;9.290;2022-09-03T01:20:30;1.50;;;1.50;;
428;SDS011;201;48.758;9.290;2022-09-03T01:23:09;5.03;;;1.77;;
428;SDS011;201;48.758;9.290;2022-09-03T01:31:27;2.37;;;2.17;;
428;SDS011;201;48.758;9.290;2022-09-03T01:34:15;1.53;;;1.27;;
428;SDS011;201;48.758;9.290;2022-09-03T01:36:47;3.07;;;1.40;;
428;SDS011;201;48.758;9.290;2022-09-03T01:47:59;1.60;;;1.50;;
428;SDS011;201;48.758;9.290;2022-09-03T01:59:14;1.60;;;1.50;;
428;SDS011;201;48.758;9.290;2022-09-03T02:04:31;2.03;;;1.80;;
428;SDS011;201;48.758;9.290;2022-09-03T02:06:58;2.80;;;1.60;;
428;SDS011;201;48.758;9.290;2022-09-03T02:09:25;1.63;;;1.53;;
428;SDS011;201;48.758;9.290;2022-09-03T02:11:56;1.43;;;1.23;;
428;SDS011;201;48.758;9.290;2022-09-03T02:14:27;2.53;;;2.17;;
428;SDS011;201;48.758;9.290;2022-09-03T02:16:54;1.80;;;1.77;;
428;SDS011;201;48.758;9.290;2022-09-03T02:19:22;1.80;;;1.70;;
428;SDS011;201;48.758;9.290;2022-09-03T02:21:51;2.13;;;1.70;;
428;SDS011;201;48.758;9.290;2022-09-03T02:24:19;1.57;;;1.47;;
428;SDS011;201;48.758;9.290;2022-09-03T02:26:45;1.67;;;1.53;;
428;SDS011;201;48.758;9.290;2022-09-03T02:29:11;1.77;;;1.67;;
428;SDS011;201;48.758;9.290;2022-09-03T02:31:37;2.37;;;1.87;;
428;SDS011;201;48.758;9.290;2022-09-03T02:34:02;2.17;;;1.70;;
428;SDS011;201;48.758;9.290;2022-09-03T02:36:33;2.13;;;2.03;;
428;SDS011;201;48.758;9.290;2022-09-03T02:39:05;2.67;;;2.07;;
428;SDS011;201;48.758;9.290;2022-09-03T02:41:31;2.17;;;2.00;;
428;SDS011;201;48.758;9.290;2022-09-03T02:44:01;4.00;;;1.70;;
428;SDS011;201;48.758;9.290;2022-09-03T02:46:35;1.83;;;1.63;;
428;SDS011;201;48.758;9.290;2022-09-03T02:49:04;2.53;;;1.60;;
428;SDS011;201;48.758;9.290;2022-09-03T02:51:37;2.90;;;1.57;;
428;SDS011;201;48.758;9.290;2022-09-03T02:54:04;4.70;;;2.07;;
428;SDS011;201;48.758;9.290;2022-09-03T02:56:30;1.60;;;1.50;;
428;SDS011;201;48.758;9.290;2022-09-03T02:58:55;1.70;;;1.67;;
428;SDS011;201;48.758;9.290;2022-09-03T03:01:21;1.67;;;1.40;;
428;SDS011;201;48.758;9.290;2022-09-03T03:03:47;3.17;;;1.60;;
428;SDS011;201;48.758;9.290;2022-09-03T03:06:14;2.50;;;1.63;;
428;SDS011;201;48.758;9.290;2022-09-03T03:08:39;1.63;;;1.30;;
428;SDS011;201;48.758;9.290;2022-09-03T03:11:05;5.37;;;1.63;;
428;SDS011;201;48.758;9.290;2022-09-03T03:13:31;2.13;;;1.57;;
428;SDS011;201;48.758;9.290;2022-09-03T03:15:57;2.27;;;2.00;;
428;SDS011;201;48.758;9.290;2022-09-03T03:18:24;1.83;;;1.80;;
428;SDS011;201;48.758;9.290;2022-09-03T03:20:50;7.23;;;2.20;;
428;SDS011;201;48.758;9.290;2022-09-03T03:23:16;4.20;;;1.60;;
428;SDS011;201;48.758;9.290;2022-09-03T03:25:41;3.10;;;2.30;;
428;SDS011;201;48.758;9.290;2022-09-03T03:28:07;3.13;;;2.10;;
428;SDS011;201;48.758;9.290;2022-09-03T03:30:35;2.63;;;1.70;;
428;SDS011;201;48.758;9.290;2022-09-03T03:33:03;3.00;;;2.20;;
428;SDS011;201;48.758;9.290;2022-09-03T03:35:29;2.47;;;2.10;;
428;SDS011;201;48.758;9.290;2022-09-03T03:37:56;2.70;;;1.73;;
428;SDS011;201;48.758;9.290;2022-09-03T03:40:23;3.17;;;1.77;;
428;SDS011;201;48.758;9.290;2022-09-03T03:42:48;2.93;;;2.23;;
428;SDS011;201;48.758;9.290;2022-09-03T03:45:14;2.63;;;1.90;;
428;SDS011;201;48.758;9.290;2022-09-03T03:47:40;2.80;;;2.00;;
428;SDS011;201;48.758;9.290;2022-09-03T03:50:05;2.73;;;2.10;;
428;SDS011;201;48.758;9.290;2022-09-03T03:52:31;1.70;;;1.60;;
428;SDS011;201;48.758;9.290;2022-09-03T03:54:57;4.33;;;2.00;;
428;SDS011;201;48.758;9.290;2022-09-03T03:57:22;3.40;;;1.90;;
428;SDS011;201;48.758;9.290;2022-09-03T03:59:48;2.27;;;1.80;;
428;SDS011;201;48.758;9.290;2022-09-03T04:02:14;2.70;;;1.80;;
428;SDS011;201;48.758;9.290;2022-09-03T04:04:42;2.77;;;1.67;;
428;SDS011;201;48.758;9.290;2022-09-03T04:07:08;2.20;;;2.00;;
428;SDS011;201;48.758;9.290;2022-09-03T04:09:34;2.60;;;2.07;;
428;SDS011;201;48.758;9.290;2022-09-03T04:11:59;2.00;;;1.90;;
428;SDS011;201;48.758;9.290;2022-09-03T04:14:27;1.77;;;1.67;;
428;SDS011;201;48.758;9.290;2022-09-03T04:16:53;2.87;;;1.60;;
428;SDS011;201;48.758;9.290;2022-09-03T04:19:19;2.20;;;2.00;;
428;SDS011;201;48.758;9.290;2022-09-03T04:21:45;2.10;;;2.00;;
428;SDS011;201;48.758;9.290;2022-09-03T04:24:10;2.00;;;1.90;;
428;SDS011;201;48.758;9.290;2022-09-03T04:26:36;3.23;;;1.80;;
428;SDS011;201;48.758;9.290;2022-09-03T04:29:03;3.20;;;2.00;;
428;SDS011;201;48.758;9.290;2022-09-03T04:31:30;2.20;;;1.80;;
428;SDS011;201;48.758;9.290;2022-09-03T04:33:56;3.83;;;2.13;;
428;SDS011;201;48.758;9.290;2022-09-03T04:36:23;3.40;;;2.00;;
428;SDS011;201;48.758;9.290;2022-09-03T04:38:51;2.57;;;2.43;;
428;SDS011;201;48.758;9.290;2022-09-03T04:41:22;2.40;;;2.30;;
428;SDS011;201;48.758;9.290;2022-09-03T04:43:50;2.50;;;1.93;;
428;SDS011;201;48.758;9.290;2022-09-03T04:46:16;2.87;;;2.00;;
428;SDS011;201;48.758;9.290;2022-09-03T04:48:43;3.27;;;2.30;;
428;SDS011;201;48.758;9.290;2022-09-03T04:51:12;2.43;;;2.20;;
428;SDS011;201;48.758;9.290;2022-09-03T04:53:39;2.97;;;2.40;;
428;SDS011;201;48.758;9.290;2022-09-03T04:56:16;2.73;;;2.43;;
428;SDS011;201;48.758;9.290;2022-09-03T04:58:44;2.97;;;2.37;;
428;SDS011;201;48.758;9.290;2022-09-03T05:01:10;3.67;;;2.10;;
428;SDS011;201;48.758;9.290;2022-09-03T05:03:39;4.00;;;2.43;;
428;SDS011;201;48.758;9.290;2022-09-03T05:06:05;3.00;;;2.60;;
428;SDS011;201;48.758;9.290;2022-09-03T05:08:32;2.67;;;2.40;;
428;SDS011;201;48.758;9.290;2022-09-03T05:11:00;2.60;;;2.30;;
428;SDS011;201;48.758;9.290;2022-09-03T05:13:27;2.60;;;2.33;;
428;SDS011;201;48.758;9.290;2022-09-03T05:15:57;4.60;;;2.40;;
428;SDS011;201;48.758;9.290;2022-09-03T05:18:27;3.97;;;2.07;;
428;SDS011;201;48.758;9.290;2022-09-03T05:21:00;2.93;;;2.73;;
428;SDS011;201;48.758;9.290;2022-09-03T05:23:27;3.33;;;2.53;;
428;SDS011;201;48.758;9.290;2022-09-03T05:25:58;3.23;;;2.27;;
428;SDS011;201;48.758;9.290;2022-09-03T05:28:26;2.40;;;2.20;;
428;SDS011;201;48.758;9.290;2022-09-03T05:30:59;2.30;;;2.13;;
428;SDS011;201;48.758;9.290;2022-09-03T05:33:25;2.63;;;2.27;;
428;SDS011;201;48.758;9.290;2022-09-03T05:35:52;2.43;;;2.10;;
428;SDS011;201;48.758;9.290;2022-09-03T05:38:18;3.13;;;2.30;;
428;SDS011;201;48.758;9.290;2022-09-03T05:40:44;2.43;;;1.80;;
428;SDS011;201;48.758;9.290;2022-09-03T05:43:09;2.57;;;2.40;;
428;SDS011;201;48.758;9.290;2022-09-03T05:45:35;2.97;;;2.23;;
428;SDS011;201;48.758;9.290;2022-09-03T05:48:01;2.87;;;2.20;;
428;SDS011;201;48.758;9.290;2022-09-03T05:50:27;2.90;;;2.70;;
428;SDS011;201;48.758;9.290;2022-09-03T05:52:52;4.60;;;2.30;;
428;SDS011;201;48.758;9.290;2022-09-03T05:55:18;4.20;;;2.53;;
428;SDS011;201;48.758;9.290;2022-09-03T05:57:44;2.90;;;2.40;;
428;SDS011;201;48.758;9.290;2022-09-03T06:00:10;2.63;;;2.20;;
428;SDS011;201;48.758;9.290;2022-09-03T06:02:36;3.00;;;2.90;;
428;SDS011;201;48.758;9.290;2022-09-03T06:05:01;3.03;;;2.60;;
428;SDS011;201;48.758;9.290;2022-09-03T06:07:27;5.47;;;2.40;;
428;SDS011;201;48.758;9.290;2022-09-03T06:09:53;3.23;;;2.60;;
428;SDS011;201;48.758;9.290;2022-09-03T06:12:18;2.03;;;1.90;;
428;SDS011;201;48.758;9.290;2022-09-03T06:14:44;5.63;;;2.73;;
428;SDS011;201;48.758;9.290;2022-09-03T06:17:10;2.50;;;2.30;;
428;SDS011;201;48.758;9.290;2022-09-03T06:19:36;2.60;;;2.40;;
428;SDS011;201;48.758;9.290;2022-09-03T06:22:02;2.77;;;2.40;;
428;SDS011;201;48.758;9.290;2022-09-03T06:24:28;3.20;;;2.47;;
428;SDS011;201;48.758;9.290;2022-09-03T06:26:56;2.60;;;2.40;;
428;SDS011;201;48.758;9.290;2022-09-03T06:29:22;5.63;;;2.60;;
428;SDS011;201;48.758;9.290;2022-09-03T06:31:47;2.93;;;2.80;;
428;SDS011;201;48.758;9.290;2022-09-03T06:34:14;3.13;;;2.60;;
428;SDS011;201;48.758;9.290;2022-09-03T06:36:42;3.20;;;2.60;;
428;SDS011;201;48.758;9.290;2022-09-03T06:39:08;6.07;;;2.93;;
428;SDS011;201;48.758;9.290;2022-09-03T06:41:34;5.50;;;2.50;;
428;SDS011;201;48.758;9.290;2022-09-03T06:44:00;2.50;;;2.30;;
428;SDS011;201;48.758;9.290;2022-09-03T06:46:31;4.47;;;2.80;;
428;SDS011;201;48.758;9.290;2022-09-03T06:48:58;3.43;;;3.23;;
428;SDS011;201;48.758;9.290;2022-09-03T06:51:25;5.13;;;2.77;;
428;SDS011;201;48.758;9.290;2022-09-03T06:53:53;2.53;;;2.33;;
428;SDS011;201;48.758;9.290;2022-09-03T06:56:24;2.70;;;2.50;;
428;SDS011;201;48.758;9.290;2022-09-03T06:58:51;3.00;;;2.60;;
428;SDS011;201;48.758;9.290;2022-09-03T07:01:19;2.70;;;2.50;;
428;SDS011;201;48.758;9.290;2022-09-03T07:03:54;3.13;;;2.93;;
428;SDS011;201;48.758;9.290;2022-09-03T07:06:25;3.30;;;2.30;;
428;SDS011;201;48.758;9.290;2022-09-03T07:08:52;3.57;;;3.00;;
428;SDS011;201;48.758;9.290;2022-09-03T07:11:19;3.80;;;2.97;;
428;SDS011;201;48.758;9.290;2022-09-03T07:13:48;3.20;;;2.70;;
428;SDS011;201;48.758;9.290;2022-09-03T07:16:16;3.03;;;2.70;;
428;SDS011;201;48.758;9.290;2022-09-03T07:18:53;6.03;;;3.00;;
428;SDS011;201;48.758;9.290;2022-09-03T07:21:21;3.73;;;2.67;;
428;SDS011;201;48.758;9.290;2022-09-03T07:23:48;7.10;;;3.00;;
428;SDS011;201;48.758;9.290;2022-09-03T07:26:16;3.27;;;2.70;;
428;SDS011;201;48.758;9.290;2022-09-03T07:28:44;3.50;;;2.90;;
428;SDS011;201;48.758;9.290;2022-09-03T07:31:11;2.67;;;2.47;;
428;SDS011;201;48.758;9.290;2022-09-03T07:33:39;2.57;;;2.37;;
428;SDS011;201;48.758;9.290;2022-09-03T07:36:06;4.37;;;2.97;;
428;SDS011;201;48.758;9.290;2022-09-03T07:38:34;5.93;;;2.80;;
428;SDS011;201;48.758;9.290;2022-09-03T07:41:00;3.53;;;2.77;;
428;SDS011;201;48.758;9.290;2022-09-03T07:43:29;4.93;;;2.53;;
428;SDS011;201;48.758;9.290;2022-09-03T07:45:59;2.23;;;2.07;;
428;SDS011;201;48.758;9.290;2022-09-03T07:48:25;2.33;;;2.10;;
428;SDS011;201;48.758;9.290;2022-09-03T07:50:50;3.00;;;2.80;;
428;SDS011;201;48.758;9.290;2022-09-03T07:53:17;3.33;;;2.73;;
428;SDS011;201;48.758;9.290;2022-09-03T07:55:45;2.80;;;2.60;;
428;SDS011;201;48.758;9.290;2022-09-03T07:58:11;2.87;;;2.33;;
428;SDS011;201;48.758;9.290;2022-09-03T08:00:38;4.40;;;2.53;;
428;SDS011;201;48.758;9.290;2022-09-03T08:03:04;4.50;;;2.90;;
428;SDS011;201;48.758;9.290;2022-09-03T08:05:32;2.63;;;2.50;;
428;SDS011;201;48.758;9.290;2022-09-03T08:08:00;3.10;;;2.67;;
428;SDS011;201;48.758;9.290;2022-09-03T08:10:29;4.93;;;3.20;;
428;SDS011;201;48.758;9.290;2022-09-03T08:12:58;2.77;;;2.33;;
428;SDS011;201;48.758;9.290;2022-09-03T08:15:24;2.63;;;2.43;;
428;SDS011;201;48.758;9.290;2022-09-03T08:17:50;3.17;;;2.57;;
428;SDS011;201;48.758;9.290;2022-09-03T08:20:16;2.47;;;2.30;;
428;SDS011;201;48.758;9.290;2022-09-03T08:22:42;4.30;;;2.13;;
428;SDS011;201;48.758;9.290;2022-09-03T08:25:07;3.67;;;2.30;;
428;SDS011;201;48.758;9.290;2022-09-03T08:27:33;2.67;;;2.47;;
428;SDS011;201;48.758;9.290;2022-09-03T08:29:59;2.33;;;2.10;;
428;SDS011;201;48.758;9.290;2022-09-03T08:32:25;5.93;;;2.93;;
428;SDS011;201;48.758;9.290;2022-09-03T08:34:51;2.57;;;2.37;;
428;SDS011;201;48.758;9.290;2022-09-03T08:37:16;2.70;;;2.43;;
428;SDS011;201;48.758;9.290;2022-09-03T08:39:42;2.70;;;1.97;;
428;SDS011;201;48.758;9.290;2022-09-03T08:42:27;3.23;;;2.30;;
428;SDS011;201;48.758;9.290;2022-09-03T08:45:00;3.40;;;1.87;;
428;SDS011;201;48.758;9.290;2022-09-03T08:47:38;2.50;;;2.37;;
428;SDS011;201;48.758;9.290;2022-09-03T08:52:53;2.47;;;2.23;;
428;SDS011;201;48.758;9.290;2022-09-03T08:55:27;2.30;;;2.10;;
428;SDS011;201;48.758;9.290;2022-09-03T08:58:04;2.80;;;2.60;;
428;SDS011;201;48.758;9.290;2022-09-03T09:00:38;3.10;;;2.80;;
428;SDS011;201;48.758;9.290;2022-09-03T09:03:15;5.17;;;4.87;;
428;SDS011;201;48.758;9.290;2022-09-03T09:22:45;8.30;;;6.37;;
428;SDS011;201;48.758;9.290;2022-09-03T09:25:18;7.37;;;4.23;;
428;SDS011;201;48.758;9.290;2022-09-03T09:27:59;4.77;;;3.47;;
428;SDS011;201;48.758;9.290;2022-09-03T09:30:28;3.30;;;3.10;;
428;SDS011;201;48.758;9.290;2022-09-03T09:32:58;4.10;;;3.87;;
428;SDS011;201;48.758;9.290;2022-09-03T09:35:24;3.00;;;2.80;;
428;SDS011;201;48.758;9.290;2022-09-03T09:37:51;3.20;;;3.00;;
428;SDS011;201;48.758;9.290;2022-09-03T09:40:25;21.47;;;5.17;;
428;SDS011;201;48.758;9.290;2022-09-03T09:45:52;4.70;;;3.13;;
428;SDS011;201;48.758;9.290;2022-09-03T09:48:22;3.10;;;2.90;;
428;SDS011;201;48.758;9.290;2022-09-03T09:51:21;4.57;;;3.17;;
428;SDS011;201;48.758;9.290;2022-09-03T09:56:44;3.20;;;3.00;;
428;SDS011;201;48.758;9.290;2022-09-03T09:59:11;3.17;;;2.60;;
428;SDS011;201;48.758;9.290;2022-09-03T10:01:42;7.53;;;3.40;;
428;SDS011;201;48.758;9.290;2022-09-03T10:04:10;3.83;;;3.10;;
428;SDS011;201;48.758;9.290;2022-09-03T10:06:52;7.20;;;3.50;;
428;SDS011;201;48.758;9.290;2022-09-03T10:09:20;3.47;;;3.27;;
428;SDS011;201;48.758;9.290;2022-09-03T10:11:56;3.27;;;3.07;;
428;SDS011;201;48.758;9.290;2022-09-03T10:23:28;3.50;;;3.30;;
428;SDS011;201;48.758;9.290;2022-09-03T10:28:39;3.50;;;3.30;;
428;SDS011;201;48.758;9.290;2022-09-03T10:33:59;5.20;;;3.87;;
428;SDS011;201;48.758;9.290;2022-09-03T10:36:30;5.07;;;3.67;;
428;SDS011;201;48.758;9.290;2022-09-03T10:39:05;4.97;;;3.97;;
428;SDS011;201;48.758;9.290;2022-09-03T10:42:01;4.80;;;4.33;;
428;SDS011;201;48.758;9.290;2022-09-03T10:53:46;3.50;;;3.30;;
428;SDS011;201;48.758;9.290;2022-09-03T10:59:02;4.50;;;3.80;;
428;SDS011;201;48.758;9.290;2022-09-03T11:01:41;6.47;;;3.73;;
428;SDS011;201;48.758;9.290;2022-09-03T11:04:21;4.13;;;3.50;;
428;SDS011;201;48.758;9.290;2022-09-03T11:07:00;3.70;;;3.50;;
428;SDS011;201;48.758;9.290;2022-09-03T11:09:32;4.40;;;3.30;;
428;SDS011;201;48.758;9.290;2022-09-03T11:12:05;3.00;;;2.80;;
428;SDS011;201;48.758;9.290;2022-09-03T11:14:50;5.73;;;3.43;;
428;SDS011;201;48.758;9.290;2022-09-03T11:17:27;3.57;;;3.07;;
428;SDS011;201;48.758;9.290;2022-09-03T11:20:04;3.60;;;3.40;;
428;SDS011;201;48.758;9.290;2022-09-03T11:22:40;3.50;;;3.30;;
428;SDS011;201;48.758;9.290;2022-09-03T11:25:08;4.87;;;3.53;;
428;SDS011;201;48.758;9.290;2022-09-03T11:30:13;3.50;;;3.30;;
428;SDS011;201;48.758;9.290;2022-09-03T11:32:51;3.67;;;3.40;;
428;SDS011;201;48.758;9.290;2022-09-03T11:37:59;3.13;;;2.87;;
428;SDS011;201;48.758;9.290;2022-09-03T11:40:28;4.77;;;3.50;;
428;SDS011;201;48.758;9.290;2022-09-03T11:43:04;3.23;;;3.03;;
428;SDS011;201;48.758;9.290;2022-09-03T11:45:33;3.53;;;3.07;;
428;SDS011;201;48.758;9.290;2022-09-03T11:48:01;3.20;;;3.00;;
428;SDS011;201;48.758;9.290;2022-09-03T11:50:40;4.00;;;3.40;;
428;SDS011;201;48.758;9.290;2022-09-03T11:53:24;3.60;;;3.40;;
428;SDS011;201;48.758;9.290;2022-09-03T11:55:55;3.50;;;3.30;;
428;SDS011;201;48.758;9.290;2022-09-03T11:58:37;3.13;;;2.93;;
428;SDS011;201;48.758;9.290;2022-09-03T12:01:08;3.93;;;3.23;;
428;SDS011;201;48.758;9.290;2022-09-03T12:06:11;3.93;;;3.73;;
428;SDS011;201;48.758;9.290;2022-09-03T12:08:52;4.03;;;3.63;;
428;SDS011;201;48.758;9.290;2022-09-03T12:19:52;6.33;;;4.03;;
428;SDS011;201;48.758;9.290;2022-09-03T12:22:21;4.40;;;4.10;;
428;SDS011;201;48.758;9.290;2022-09-03T12:24:48;4.80;;;4.50;;
428;SDS011;201;48.758;9.290;2022-09-03T12:27:18;8.60;;;4.80;;
428;SDS011;201;48.758;9.290;2022-09-03T12:29:51;6.03;;;2.13;;
428;SDS011;201;48.758;9.290;2022-09-03T12:32:24;2.00;;;1.90;;
428;SDS011;201;48.758;9.290;2022-09-03T12:34:56;1.67;;;1.20;;
428;SDS011;201;48.758;9.290;2022-09-03T12:37:23;2.23;;;1.57;;
428;SDS011;201;48.758;9.290;2022-09-03T12:39:53;5.23;;;1.83;;
428;SDS011;201;48.758;9.290;2022-09-03T12:42:29;2.07;;;1.27;;
428;SDS011;201;48.758;9.290;2022-09-03T12:45:08;2.00;;;1.43;;
428;SDS011;201;48.758;9.290;2022-09-03T12:47:37;1.53;;;1.43;;
428;SDS011;201;48.758;9.290;2022-09-03T12:50:08;1.67;;;1.30;;
428;SDS011;201;48.758;9.290;2022-09-03T12:55:30;1.53;;;1.10;;
428;SDS011;201;48.758;9.290;2022-09-03T13:00:41;1.83;;;1.20;;
428;SDS011;201;48.758;9.290;2022-09-03T13:03:23;2.10;;;1.63;;
428;SDS011;201;48.758;9.290;2022-09-03T13:05:57;1.70;;;1.40;;
428;SDS011;201;48.758;9.290;2022-09-03T13:08:30;7.00;;;1.90;;
428;SDS011;201;48.758;9.290;2022-09-03T13:11:00;6.40;;;1.70;;
428;SDS011;201;48.758;9.290;2022-09-03T13:13:32;2.90;;;1.33;;
428;SDS011;201;48.758;9.290;2022-09-03T13:19:16;2.10;;;1.57;;
428;SDS011;201;48.758;9.290;2022-09-03T13:24:31;2.23;;;1.87;;
428;SDS011;201;48.758;9.290;2022-09-03T13:30:00;2.70;;;1.40;;
428;SDS011;201;48.758;9.290;2022-09-03T13:32:40;3.87;;;2.27;;
428;SDS011;201;48.758;9.290;2022-09-03T13:35:21;2.83;;;2.03;;
428;SDS011;201;48.758;9.290;2022-09-03T13:41:00;4.27;;;2.57;;
428;SDS011;201;48.758;9.290;2022-09-03T13:43:36;1.80;;;1.73;;
428;SDS011;201;48.758;9.290;2022-09-03T13:46:22;4.27;;;2.10;;
428;SDS011;201;48.758;9.290;2022-09-03T13:49:01;4.33;;;2.20;;
428;SDS011;201;48.758;9.290;2022-09-03T13:52:15;3.90;;;3.20;;
428;SDS011;201;48.758;9.290;2022-09-03T13:54:48;3.33;;;2.73;;
428;SDS011;201;48.758;9.290;2022-09-03T13:57:21;3.47;;;2.73;;
428;SDS011;201;48.758;9.290;2022-09-03T13:59:55;3.30;;;2.40;;
428;SDS011;201;48.758;9.290;2022-09-03T14:02:44;6.73;;;2.10;;
428;SDS011;201;48.758;9.290;2022-09-03T14:07:52;3.10;;;2.77;;
428;SDS011;201;48.758;9.290;2022-09-03T14:19:08;1.90;;;1.90;;
428;SDS011;201;48.758;9.290;2022-09-03T14:29:26;4.67;;;2.57;;
428;SDS011;201;48.758;9.290;2022-09-03T14:37:31;3.30;;;2.40;;
428;SDS011;201;48.758;9.290;2022-09-03T14:45:23;3.40;;;1.83;;
428;SDS011;201;48.758;9.290;2022-09-03T14:47:57;2.10;;;1.33;;
428;SDS011;201;48.758;9.290;2022-09-03T14:56:36;2.57;;;1.63;;
428;SDS011;201;48.758;9.290;2022-09-03T14:59:18;1.97;;;1.87;;
428;SDS011;201;48.758;9.290;2022-09-03T15:04:49;2.57;;;1.47;;
428;SDS011;201;48.758;9.290;2022-09-03T15:10:11;3.07;;;1.40;;
428;SDS011;201;48.758;9.290;2022-09-03T15:12:44;1.50;;;1.20;;
428;SDS011;201;48.758;9.290;2022-09-03T15:15:17;3.83;;;1.40;;
428;SDS011;201;48.758;9.290;2022-09-03T15:20:53;1.70;;;1.23;;
428;SDS011;201;48.758;9.290;2022-09-03T15:23:40;3.10;;;1.33;;
428;SDS011;201;48.758;9.290;2022-09-03T15:26:21;3.10;;;1.50;;
428;SDS011;201;48.758;9.290;2022-09-03T15:37:19;4.37;;;1.40;;
428;SDS011;201;48.758;9.290;2022-09-03T15:40:05;2.73;;;1.13;;
428;SDS011;201;48.758;9.290;2022-09-03T15:42:40;4.83;;;1.70;;
428;SDS011;201;48.758;9.290;2022-09-03T15:45:14;1.97;;;1.30;;
428;SDS011;201;48.758;9.290;2022-09-03T15:50:15;1.60;;;1.50;;
428;SDS011;201;48.758;9.290;2022-09-03T15:53:50;2.70;;;1.13;;
428;SDS011;201;48.758;9.290;2022-09-03T15:58:36;2.50;;;1.00;;
428;SDS011;201;48.758;9.290;2022-09-03T16:01:19;2.57;;;1.30;;
428;SDS011;201;48.758;9.290;2022-09-03T16:06:41;1.50;;;1.40;;
428;SDS011;201;48.758;9.290;2022-09-03T16:09:18;3.87;;;2.63;;
428;SDS011;201;48.758;9.290;2022-09-03T16:14:35;4.07;;;1.40;;
428;SDS011;201;48.758;9.290;2022-09-03T16:17:18;1.97;;;1.50;;
428;SDS011;201;48.758;9.290;2022-09-03T16:20:06;3.47;;;1.73;;
428;SDS011;201;48.758;9.290;2022-09-03T16:22:47;2.40;;;1.53;;
428;SDS011;201;48.758;9.290;2022-09-03T16:25:22;2.47;;;1.70;;
428;SDS011;201;48.758;9.290;2022-09-03T16:27:54;1.43;;;1.40;;
428;SDS011;201;48.758;9.290;2022-09-03T16:38:52;1.90;;;1.27;;
428;SDS011;201;48.758;9.290;2022-09-03T16:44:35;2.53;;;1.73;;
428;SDS011;201;48.758;9.290;2022-09-03T16:53:07;4.80;;;1.67;;
428;SDS011;201;48.758;9.290;2022-09-03T16:56:11;8.43;;;2.80;;
428;SDS011;201;48.758;9.290;2022-09-03T16:59:09;8.10;;;1.60;;
428;SDS011;201;48.758;9.290;2022-09-03T17:01:48;2.33;;;1.50;;
428;SDS011;201;48.758;9.290;2022-09-03T17:04:37;1.70;;;1.40;;
428;SDS011;201;48.758;9.290;2022-09-03T17:07:30;3.80;;;2.20;;
428;SDS011;201;48.758;9.290;2022-09-03T17:15:48;3.23;;;2.30;;
428;SDS011;201;48.758;9.290;2022-09-03T17:18:35;2.83;;;2.43;;
428;SDS011;201;48.758;9.290;2022-09-03T17:21:22;5.70;;;2.13;;
428;SDS011;201;48.758;9.290;2022-09-03T17:24:09;3.13;;;2.10;;
428;SDS011;201;48.758;9.290;2022-09-03T17:26:50;4.30;;;2.27;;
428;SDS011;201;48.758;9.290;2022-09-03T17:29:39;2.53;;;2.10;;
428;SDS011;201;48.758;9.290;2022-09-03T17:35:28;6.97;;;2.03;;
428;SDS011;201;48.758;9.290;2022-09-03T17:40:58;4.93;;;2.37;;
428;SDS011;201;48.758;9.290;2022-09-03T17:51:23;2.53;;;1.83;;
428;SDS011;201;48.758;9.290;2022-09-03T17:54:06;4.93;;;2.20;;
428;SDS011;201;48.758;9.290;2022-09-03T17:59:40;2.30;;;2.00;;
428;SDS011;201;48.758;9.290;2022-09-03T18:08:11;8.20;;;3.00;;
428;SDS011;201;48.758;9.290;2022-09-03T18:11:06;11.30;;;3.47;;
428;SDS011;201;48.758;9.290;2022-09-03T18:16:30;2.57;;;1.97;;
428;SDS011;201;48.758;9.290;2022-09-03T18:18:59;10.07;;;2.70;;
428;SDS011;201;48.758;9.290;2022-09-03T18:21:29;10.63;;;3.43;;
428;SDS011;201;48.758;9.290;2022-09-03T18:30:11;3.07;;;2.20;;
428;SDS011;201;48.758;9.290;2022-09-03T18:32:57;2.73;;;2.00;;
428;SDS011;201;48.758;9.290;2022-09-03T18:35:42;3.10;;;2.40;;
428;SDS011;201;48.758;9.290;2022-09-03T18:38:35;3.20;;;2.20;;
428;SDS011;201;48.758;9.290;2022-09-03T18:47:58;3.30;;;3.10;;
428;SDS011;201;48.758;9.290;2022-09-03T18:57:40;3.17;;;2.47;;
428;SDS011;201;48.758;9.290;2022-09-03T19:07:46;3.03;;;2.70;;
428;SDS011;201;48.758;9.290;2022-09-03T19:13:44;3.13;;;2.90;;
428;SDS011;201;48.758;9.290;2022-09-03T19:20:23;4.23;;;3.53;;
428;SDS011;201;48.758;9.290;2022-09-03T19:23:11;2.80;;;2.67;;
428;SDS011;201;48.758;9.290;2022-09-03T19:25:56;3.80;;;3.17;;
428;SDS011;201;48.758;9.290;2022-09-03T19:28:48;6.67;;;3.00;;
428;SDS011;201;48.758;9.290;2022-09-03T19:31:53;4.13;;;2.83;;
428;SDS011;201;48.758;9.290;2022-09-03T19:38:04;17.60;;;15.43;;
428;SDS011;201;48.758;9.290;2022-09-03T19:40:58;7.53;;;5.33;;
428;SDS011;201;48.758;9.290;2022-09-03T19:46:49;8.60;;;6.87;;
428;SDS011;201;48.758;9.290;2022-09-03T19:52:50;3.10;;;2.90;;
428;SDS011;201;48.758;9.290;2022-09-03T19:55:48;3.53;;;3.33;;
428;SDS011;201;48.758;9.290;2022-09-03T19:58:37;3.53;;;2.77;;
428;SDS011;201;48.758;9.290;2022-09-03T20:01:28;3.73;;;3.33;;
428;SDS011;201;48.758;9.290;2022-09-03T20:04:16;5.13;;;4.20;;
428;SDS011;201;48.758;9.290;2022-09-03T20:07:02;8.07;;;4.67;;
428;SDS011;201;48.758;9.290;2022-09-03T20:09:50;5.30;;;3.83;;
428;SDS011;201;48.758;9.290;2022-09-03T20:12:37;4.20;;;3.63;;
428;SDS011;201;48.758;9.290;2022-09-03T20:15:08;5.20;;;3.60;;
428;SDS011;201;48.758;9.290;2022-09-03T20:20:54;4.13;;;3.83;;
428;SDS011;201;48.758;9.290;2022-09-03T20:28:59;5.60;;;4.40;;
428;SDS011;201;48.758;9.290;2022-09-03T20:32:07;5.60;;;5.33;;
428;SDS011;201;48.758;9.290;2022-09-03T20:40:45;4.33;;;4.00;;
428;SDS011;201;48.758;9.290;2022-09-03T20:55:06;6.10;;;5.77;;
428;SDS011;201;48.758;9.290;2022-09-03T21:00:13;10.47;;;7.10;;
428;SDS011;201;48.758;9.290;2022-09-03T21:05:16;11.43;;;6.97;;
428;SDS011;201;48.758;9.290;2022-09-03T21:07:54;8.27;;;6.73;;
428;SDS011;201;48.758;9.290;2022-09-03T21:10:36;8.83;;;6.50;;
428;SDS011;201;48.758;9.290;2022-09-03T21:19:07;6.33;;;5.73;;
428;SDS011;201;48.758;9.290;2022-09-03T21:24:33;5.33;;;5.03;;
428;SDS011;201;48.758;9.290;2022-09-03T21:27:12;5.60;;;5.00;;
428;SDS011;201;48.758;9.290;2022-09-03T21:29:46;6.27;;;5.20;;
428;SDS011;201;48.758;9.290;2022-09-03T21:32:32;5.10;;;4.37;;
428;SDS011;201;48.758;9.290;2022-09-03T21:35:05;4.50;;;3.80;;
428;SDS011;201;48.758;9.290;2022-09-03T21:37:38;4.60;;;4.30;;
428;SDS011;201;48.758;9.290;2022-09-03T21:40:11;4.90;;;4.00;;
428;SDS011;201;48.758;9.290;2022-09-03T21:42:40;4.40;;;3.70;;
428;SDS011;201;48.758;9.290;2022-09-03T21:45:29;6.17;;;3.70;;
428;SDS011;201;48.758;9.290;2022-09-03T21:48:08;4.27;;;3.63;;
428;SDS011;201;48.758;9.290;2022-09-03T21:50:44;4.13;;;3.40;;
428;SDS011;201;48.758;9.290;2022-09-03T21:53:24;4.30;;;4.00;;
428;SDS011;201;48.758;9.290;2022-09-03T22:01:22;5.57;;;4.83;;
428;SDS011;201;48.758;9.290;2022-09-03T22:03:56;4.50;;;4.20;;